createdAt,value
2023-11-18T00:00:25.764Z,15.91
2023-11-18T00:02:54.530Z,15.93
2023-11-18T00:05:22.913Z,15.94
2023-11-18T00:07:51.362Z,15.99
2023-11-18T00:10:19.483Z,16.01
2023-11-18T00:12:52.328Z,16.01
2023-11-18T00:15:21.254Z,16.03
2023-11-18T00:17:50.571Z,16.01
2023-11-18T00:20:20.403Z,16.07
2023-11-18T00:22:49.810Z,16.12
2023-11-18T00:25:18.042Z,16.16
2023-11-18T00:27:46.012Z,16.20
2023-11-18T00:30:18.032Z,16.23
2023-11-18T00:32:46.621Z,16.22
2023-11-18T00:35:15.893Z,16.19
2023-11-18T00:37:45.583Z,16.16
2023-11-18T00:40:13.675Z,16.12
2023-11-18T00:42:41.716Z,16.11
2023-11-18T00:45:10.277Z,16.08
2023-11-18T00:47:42.365Z,16.05
2023-11-18T00:50:11.704Z,16.05
2023-11-18T00:52:42.622Z,16.02
2023-11-18T00:55:12.273Z,16.04
2023-11-18T00:57:41.238Z,16.05
2023-11-18T01:00:15.171Z,16.01
2023-11-18T01:02:45.868Z,16.04
2023-11-18T01:05:17.272Z,16.02
2023-11-18T01:07:45.422Z,15.99
2023-11-18T01:10:14.929Z,15.98
2023-11-18T01:12:45.353Z,15.98
2023-11-18T01:15:16.358Z,15.99
2023-11-18T01:17:46.206Z,16.01
2023-11-18T01:20:15.096Z,15.99
2023-11-18T01:22:44.416Z,16.02
2023-11-18T01:25:12.735Z,16.05
2023-11-18T01:27:54.603Z,16.09
2023-11-18T01:30:28.079Z,16.07
2023-11-18T01:32:58.135Z,16.08
2023-11-18T01:35:27.828Z,16.07
2023-11-18T01:37:56.709Z,16.10
2023-11-18T01:40:26.039Z,16.11
2023-11-18T01:42:54.189Z,16.12
2023-11-18T01:45:22.387Z,16.14
2023-11-18T01:47:50.610Z,16.14
2023-11-18T01:50:21.903Z,16.14
2023-11-18T01:53:04.754Z,16.18
2023-11-18T01:55:35.585Z,16.18
2023-11-18T01:58:08.780Z,16.23
2023-11-18T02:01:09.214Z,16.26
2023-11-18T02:03:43.686Z,16.25
2023-11-18T02:06:15.413Z,16.24
2023-11-18T02:08:52.504Z,16.29
2023-11-18T02:11:25.933Z,16.30
2023-11-18T02:13:56.245Z,16.29
2023-11-18T02:16:24.486Z,16.30
2023-11-18T02:18:59.627Z,16.32
2023-11-18T02:21:32.634Z,16.36
2023-11-18T02:24:03.087Z,16.37
2023-11-18T02:26:32.453Z,16.40
2023-11-18T02:29:05.864Z,16.42
2023-11-18T02:31:38.871Z,16.44
2023-11-18T02:34:08.393Z,16.47
2023-11-18T02:36:40.022Z,16.48
2023-11-18T02:39:18.558Z,16.51
2023-11-18T02:41:54.388Z,16.54
2023-11-18T02:44:24.458Z,16.50
2023-11-18T02:46:55.046Z,16.53
2023-11-18T02:49:25.242Z,16.53
2023-11-18T02:51:53.771Z,16.57
2023-11-18T02:54:21.830Z,16.63
2023-11-18T02:56:53.657Z,16.77
2023-11-18T02:59:24.175Z,17.00
2023-11-18T03:01:56.198Z,17.18
2023-11-18T03:04:26.259Z,17.34
2023-11-18T03:06:54.451Z,17.42
2023-11-18T03:09:28.471Z,17.52
2023-11-18T03:12:00.613Z,17.63
2023-11-18T03:14:30.055Z,17.69
2023-11-18T03:16:58.198Z,17.71
2023-11-18T03:19:26.262Z,17.79
2023-11-18T03:21:54.652Z,17.85
2023-11-18T03:24:22.705Z,17.87
2023-11-18T03:26:51.934Z,17.88
2023-11-18T03:29:21.527Z,17.98
2023-11-18T03:31:49.803Z,18.02
2023-11-18T03:34:21.780Z,18.03
2023-11-18T03:36:52.465Z,18.06
2023-11-18T03:39:20.526Z,18.06
2023-11-18T03:41:48.498Z,18.07
2023-11-18T03:44:16.710Z,18.07
2023-11-18T03:46:47.092Z,18.07
2023-11-18T03:49:15.198Z,18.04
2023-11-18T03:51:45.899Z,18.09
2023-11-18T03:54:14.060Z,18.12
2023-11-18T03:56:42.996Z,18.08
2023-11-18T03:59:14.235Z,18.13
2023-11-18T04:01:54.398Z,18.13
2023-11-18T04:04:24.079Z,18.12
2023-11-18T04:06:52.723Z,18.13
2023-11-18T04:09:20.995Z,18.16
2023-11-18T04:11:49.183Z,18.14
2023-11-18T04:14:18.368Z,18.11
2023-11-18T04:16:48.984Z,18.10
2023-11-18T04:19:19.573Z,18.12
2023-11-18T04:21:50.539Z,18.11
2023-11-18T04:24:18.777Z,18.12
2023-11-18T04:26:47.206Z,18.11
2023-11-18T04:29:15.715Z,18.11
2023-11-18T04:31:45.394Z,18.08
2023-11-18T04:34:15.838Z,18.10
2023-11-18T04:36:44.806Z,18.08
2023-11-18T04:39:13.535Z,18.10
2023-11-18T04:41:43.288Z,18.10
2023-11-18T04:44:11.421Z,18.11
2023-11-18T04:46:39.501Z,18.12
2023-11-18T04:49:07.622Z,18.09
2023-11-18T04:51:37.419Z,18.07
2023-11-18T04:54:05.911Z,18.09
2023-11-18T04:56:33.954Z,18.12
2023-11-18T04:59:03.301Z,18.14
2023-11-18T05:01:31.471Z,18.16
2023-11-18T05:04:00.362Z,18.16
2023-11-18T05:06:28.730Z,18.16
2023-11-18T05:08:59.201Z,18.16
2023-11-18T05:11:27.223Z,18.16
2023-11-18T05:13:55.264Z,18.15
2023-11-18T05:16:23.312Z,18.17
2023-11-18T05:18:51.239Z,18.14
2023-11-18T05:21:19.779Z,18.19
2023-11-18T05:23:47.784Z,18.19
2023-11-18T05:26:20.393Z,18.19
2023-11-18T05:28:50.124Z,18.20
2023-11-18T05:31:21.078Z,18.22
2023-11-18T05:33:56.498Z,18.22
2023-11-18T05:36:28.880Z,18.24
2023-11-18T05:38:59.478Z,18.26
2023-11-18T05:41:40.872Z,18.26
2023-11-18T05:44:20.771Z,18.30
2023-11-18T05:46:48.985Z,18.32
2023-11-18T05:49:17.053Z,18.38
2023-11-18T05:51:47.446Z,18.46
2023-11-18T05:54:15.924Z,18.50
2023-11-18T05:56:49.951Z,18.48
2023-11-18T05:59:18.709Z,18.57
2023-11-18T06:01:48.815Z,18.62
2023-11-18T06:04:16.924Z,18.58
2023-11-18T06:06:44.919Z,18.55
2023-11-18T06:09:22.232Z,18.59
2023-11-18T06:11:55.619Z,18.61
2023-11-18T06:14:24.781Z,18.62
2023-11-18T06:16:53.203Z,18.61
2023-11-18T06:19:22.091Z,18.62
2023-11-18T06:21:50.975Z,18.61
2023-11-18T06:24:20.235Z,18.58
2023-11-18T06:26:50.574Z,18.63
2023-11-18T06:29:20.088Z,18.62
2023-11-18T06:31:48.216Z,18.63
2023-11-18T06:34:16.230Z,18.65
2023-11-18T06:36:46.696Z,18.61
2023-11-18T06:39:14.839Z,18.56
2023-11-18T06:41:49.820Z,18.58
2023-11-18T06:44:24.961Z,18.58
2023-11-18T06:46:54.590Z,18.58
2023-11-18T06:49:29.823Z,18.56
2023-11-18T06:52:04.230Z,18.58
2023-11-18T06:54:34.522Z,18.59
2023-11-18T06:57:02.608Z,18.58
2023-11-18T06:59:33.543Z,18.58
2023-11-18T07:02:07.730Z,18.57
2023-11-18T07:04:39.367Z,18.56
2023-11-18T07:07:10.037Z,18.53
2023-11-18T07:09:45.969Z,18.56
2023-11-18T07:12:18.446Z,18.52
2023-11-18T07:14:50.111Z,18.44
2023-11-18T07:17:20.090Z,18.53
2023-11-18T07:19:48.213Z,18.46
2023-11-18T07:22:16.270Z,18.50
2023-11-18T07:24:44.680Z,18.46
2023-11-18T07:27:15.549Z,18.44
2023-11-18T07:29:46.341Z,18.42
2023-11-18T07:32:16.466Z,18.41
2023-11-18T07:34:45.063Z,18.39
2023-11-18T07:37:14.144Z,18.42
2023-11-18T07:39:46.171Z,18.34
2023-11-18T07:42:19.069Z,18.33
2023-11-18T07:44:47.215Z,18.43
2023-11-18T07:47:17.395Z,18.41
2023-11-18T07:49:47.650Z,18.39
2023-11-18T07:52:15.758Z,18.37
2023-11-18T07:54:44.178Z,18.38
2023-11-18T07:57:21.109Z,18.40
2023-11-18T07:59:49.142Z,18.39
2023-11-18T08:02:20.178Z,18.42
2023-11-18T08:04:48.782Z,18.40
2023-11-18T08:07:22.262Z,18.40
2023-11-18T08:09:50.411Z,18.38
2023-11-18T08:12:18.527Z,18.43
2023-11-18T08:14:46.596Z,18.38
2023-11-18T08:17:14.684Z,18.43
2023-11-18T08:19:44.163Z,18.40
2023-11-18T08:22:13.078Z,18.50
2023-11-18T08:24:42.057Z,18.48
2023-11-18T08:27:11.163Z,18.49
2023-11-18T08:29:51.310Z,18.47
2023-11-18T08:32:20.052Z,18.46
2023-11-18T08:34:52.225Z,18.52
2023-11-18T08:37:20.284Z,18.53
2023-11-18T08:39:51.105Z,18.53
2023-11-18T08:42:20.318Z,18.48
2023-11-18T08:44:49.635Z,18.51
2023-11-18T08:47:17.713Z,18.48
2023-11-18T08:49:47.631Z,18.51
2023-11-18T08:52:19.498Z,18.52
2023-11-18T08:55:09.465Z,18.56
2023-11-18T08:57:49.559Z,18.55
2023-11-18T09:00:40.409Z,18.59
2023-11-18T09:03:18.771Z,18.60
2023-11-18T09:06:00.248Z,18.63
2023-11-18T09:08:33.443Z,18.52
2023-11-18T09:11:01.644Z,18.64
2023-11-18T09:13:31.117Z,18.63
2023-11-18T09:15:59.408Z,18.58
2023-11-18T09:18:28.963Z,18.66
2023-11-18T09:20:57.884Z,18.68
2023-11-18T09:23:26.771Z,18.66
2023-11-18T09:25:56.269Z,18.61
2023-11-18T09:28:29.655Z,18.66
2023-11-18T09:30:59.848Z,18.64
2023-11-18T09:33:30.272Z,18.63
2023-11-18T09:36:00.857Z,18.67
2023-11-18T09:38:32.708Z,18.64
2023-11-18T09:41:08.370Z,18.61
2023-11-18T09:43:43.781Z,18.68
2023-11-18T09:46:15.416Z,18.66
2023-11-18T09:48:47.609Z,18.68
2023-11-18T09:51:31.321Z,18.70
2023-11-18T09:54:01.937Z,18.67
2023-11-18T09:56:40.376Z,18.75
2023-11-18T09:59:17.496Z,18.75
2023-11-18T10:02:14.735Z,18.79
2023-11-18T10:04:43.061Z,18.77
2023-11-18T10:07:12.331Z,18.74
2023-11-18T10:09:51.655Z,18.72
2023-11-18T10:12:25.141Z,18.69
2023-11-18T10:15:09.367Z,18.67
2023-11-18T10:17:38.127Z,18.71
2023-11-18T10:20:14.215Z,18.71
2023-11-18T10:22:43.060Z,18.75
2023-11-18T10:25:17.055Z,18.71
2023-11-18T10:27:47.572Z,18.64
2023-11-18T10:30:22.862Z,18.71
2023-11-18T10:33:07.950Z,18.76
2023-11-18T10:35:36.166Z,18.77
2023-11-18T10:38:07.115Z,18.83
2023-11-18T10:40:37.742Z,18.82
2023-11-18T10:43:10.837Z,18.81
2023-11-18T10:45:48.297Z,18.77
2023-11-18T10:48:17.808Z,18.82
2023-11-18T10:50:48.124Z,18.82
2023-11-18T10:53:18.086Z,18.79
2023-11-18T10:55:46.333Z,18.84
2023-11-18T10:58:52.755Z,18.90
2023-11-18T11:01:29.851Z,18.87
2023-11-18T11:03:59.781Z,18.85
2023-11-18T11:06:42.940Z,18.83
2023-11-18T11:09:18.261Z,18.92
2023-11-18T11:12:07.397Z,18.90
2023-11-18T11:14:40.628Z,18.92
2023-11-18T11:17:16.423Z,18.92
2023-11-18T11:19:56.659Z,18.87
2023-11-18T11:22:28.627Z,18.94
2023-11-18T11:25:10.625Z,19.00
2023-11-18T11:27:50.339Z,19.00
2023-11-18T11:30:27.587Z,19.02
2023-11-18T11:33:00.687Z,19.05
2023-11-18T11:35:32.112Z,19.08
2023-11-18T11:38:05.088Z,19.09
2023-11-18T11:40:36.038Z,19.06
2023-11-18T11:43:06.336Z,19.04
2023-11-18T11:45:35.894Z,19.05
2023-11-18T11:48:17.664Z,19.05
2023-11-18T11:51:21.625Z,18.95
2023-11-18T11:53:53.604Z,19.00
2023-11-18T11:56:25.490Z,18.97
2023-11-18T11:58:54.916Z,18.95
2023-11-18T12:01:36.013Z,18.97
2023-11-18T12:04:08.270Z,19.01
2023-11-18T12:06:37.613Z,19.01
2023-11-18T12:09:08.419Z,19.02
2023-11-18T12:11:40.731Z,18.97
2023-11-18T12:14:23.097Z,18.97
2023-11-18T12:17:09.302Z,18.96
2023-11-18T12:19:49.237Z,18.95
2023-11-18T12:22:26.159Z,18.83
2023-11-18T12:25:37.884Z,18.92
2023-11-18T12:28:54.802Z,18.94
2023-11-18T12:32:10.688Z,18.94
2023-11-18T12:35:56.592Z,18.86
2023-11-18T12:40:04.637Z,18.93
2023-11-18T12:44:06.255Z,18.97
2023-11-18T13:03:28.993Z,19.04
2023-11-18T13:06:58.937Z,19.10
2023-11-18T13:10:32.386Z,19.08
2023-11-18T13:13:38.057Z,19.10
2023-11-18T13:20:37.898Z,19.09
2023-11-18T13:28:24.520Z,19.17
2023-11-18T13:34:48.249Z,19.24
2023-11-18T13:41:11.845Z,19.19
2023-11-18T13:49:13.609Z,19.13
2023-11-18T13:56:20.299Z,19.10
2023-11-18T14:12:06.059Z,19.07
2023-11-18T14:15:12.269Z,19.04
2023-11-18T14:18:36.799Z,19.02
2023-11-18T14:29:00.956Z,18.98
2023-11-18T14:34:43.137Z,19.00
2023-11-18T14:37:42.767Z,19.02
2023-11-18T14:44:19.670Z,19.05
2023-11-18T14:54:56.393Z,18.94
2023-11-18T15:04:38.017Z,18.98
2023-11-18T15:11:11.617Z,18.92
2023-11-18T15:14:40.248Z,18.93
2023-11-18T15:18:47.054Z,18.82
2023-11-18T15:42:43.683Z,18.82
2023-11-18T15:50:01.906Z,18.79
2023-11-18T15:57:35.770Z,18.75
2023-11-18T16:05:01.590Z,18.70
2023-11-18T16:16:33.150Z,18.72
2023-11-18T17:47:45.862Z,18.50
2023-11-18T17:50:24.460Z,18.37
2023-11-18T17:55:49.014Z,18.54
2023-11-18T17:58:19.981Z,18.56
2023-11-18T18:00:51.226Z,18.50
2023-11-18T18:09:06.606Z,18.43
2023-11-18T18:11:38.054Z,18.51
2023-11-18T18:16:59.979Z,18.43
2023-11-18T18:19:32.813Z,18.44
2023-11-18T18:22:11.142Z,18.45
2023-11-18T18:24:48.846Z,18.49
2023-11-18T18:27:17.808Z,18.49
2023-11-18T18:29:48.496Z,18.45
2023-11-18T18:32:20.438Z,18.44
2023-11-18T18:34:58.449Z,18.43
2023-11-18T18:37:36.467Z,18.36
2023-11-18T18:40:13.302Z,18.42
2023-11-18T18:42:58.228Z,18.43
2023-11-18T18:45:47.718Z,18.41
2023-11-18T18:48:28.055Z,18.45
2023-11-18T18:50:58.723Z,18.45
2023-11-18T18:54:00.901Z,18.44
2023-11-18T19:02:42.308Z,18.36
2023-11-18T19:05:38.941Z,18.42
2023-11-18T19:11:07.271Z,18.31
2023-11-18T19:14:01.299Z,18.32
2023-11-18T19:16:47.410Z,18.33
2023-11-18T19:19:23.322Z,18.37
2023-11-18T19:22:01.744Z,18.18
2023-11-18T19:24:56.415Z,18.30
2023-11-18T19:27:54.103Z,18.20
2023-11-18T19:30:38.363Z,18.19
2023-11-18T19:33:15.727Z,18.16
2023-11-18T19:35:56.156Z,18.18
2023-11-18T19:38:32.801Z,18.20
2023-11-18T19:41:01.919Z,18.18
2023-11-18T19:47:07.332Z,18.20
2023-11-18T19:49:59.527Z,18.18
2023-11-18T19:52:55.162Z,18.17
2023-11-18T19:58:47.462Z,18.18
2023-11-18T20:01:39.868Z,18.14
2023-11-18T20:04:11.027Z,18.14
2023-11-18T20:06:44.696Z,18.17
2023-11-18T20:09:27.589Z,18.05
2023-11-18T20:14:35.281Z,18.06
2023-11-18T20:20:24.701Z,18.04
2023-11-18T20:26:07.376Z,18.07
2023-11-18T20:28:47.955Z,17.97
2023-11-18T20:31:32.608Z,18.03
2023-11-18T20:34:31.650Z,18.04
2023-11-18T20:37:12.673Z,18.04
2023-11-18T20:39:51.257Z,17.91
2023-11-18T20:42:28.024Z,17.79
2023-11-18T20:45:04.298Z,17.89
2023-11-18T20:47:47.413Z,17.83
2023-11-18T20:50:47.055Z,17.71
2023-11-18T20:53:43.364Z,17.87
2023-11-18T20:56:24.591Z,17.80
2023-11-18T20:59:29.798Z,17.83
2023-11-18T21:04:56.279Z,17.84
2023-11-18T21:07:26.921Z,17.83
2023-11-18T21:15:49.236Z,17.84
2023-11-18T21:18:26.907Z,17.78
2023-11-18T21:24:09.233Z,17.84
2023-11-18T21:26:41.860Z,17.74
2023-11-18T21:29:14.770Z,17.82
2023-11-18T21:31:54.595Z,17.80
2023-11-18T21:34:40.065Z,17.85
2023-11-18T21:37:16.675Z,17.83
2023-11-18T21:39:53.283Z,17.77
2023-11-18T21:42:34.431Z,17.83
2023-11-18T21:45:04.814Z,17.84
2023-11-18T21:50:37.530Z,17.90
2023-11-18T21:53:08.117Z,17.87
2023-11-18T21:55:46.095Z,17.86
2023-11-18T21:58:19.311Z,17.85
2023-11-18T22:00:50.109Z,17.94
2023-11-18T22:03:20.728Z,17.93
2023-11-18T22:05:56.054Z,17.88
2023-11-18T22:08:28.599Z,17.88
2023-11-18T22:11:03.944Z,17.91
2023-11-18T22:16:47.566Z,17.93
2023-11-18T22:19:24.966Z,17.77
2023-11-18T22:22:04.229Z,17.82
2023-11-18T22:24:52.730Z,17.90
2023-11-18T22:27:31.307Z,17.82
2023-11-18T22:30:05.913Z,17.78
2023-11-18T22:32:56.245Z,17.79
2023-11-18T22:38:18.932Z,17.74
2023-11-18T22:40:51.145Z,17.69
2023-11-18T22:46:14.128Z,17.69
2023-11-18T22:48:58.815Z,17.73
2023-11-18T22:51:32.448Z,17.75
2023-11-18T22:54:14.332Z,17.66
2023-11-18T22:56:53.270Z,17.74
2023-11-18T23:02:52.773Z,17.76
2023-11-18T23:05:32.194Z,17.78
2023-11-18T23:08:39.156Z,17.75
2023-11-18T23:11:28.496Z,17.72
2023-11-18T23:14:09.831Z,17.62
2023-11-18T23:16:48.928Z,17.71
2023-11-18T23:19:36.269Z,17.73
2023-11-18T23:24:59.488Z,17.68
2023-11-18T23:27:33.987Z,17.70
2023-11-18T23:30:11.196Z,17.67
2023-11-18T23:32:50.337Z,17.71
2023-11-18T23:35:31.121Z,17.74
2023-11-18T23:38:03.914Z,17.70
2023-11-18T23:40:47.513Z,17.75
2023-11-18T23:43:17.326Z,17.80
2023-11-18T23:45:53.474Z,17.70
2023-11-18T23:48:31.533Z,17.81
2023-11-18T23:51:12.173Z,17.83
2023-11-18T23:53:47.483Z,17.81
2023-11-18T23:56:24.621Z,17.81
2023-11-18T23:58:58.059Z,17.85
